Aérodrome :
LOGIN :

S'inscrire | Disclaimer

   EN    FR    IT 

 










Légende :    VFR   VFR Marginal   IFR   IFR Intensif   IFR Très Intensif
Visi : 
Plafond : 
>= 8 km
>= 3000ft
5 à 8 km
1000 à 3000 ft
1500m à 5 km
500 à 1000 ft
800 à 1500m
200 à 500 ft
< 800m
< 200 ft
Symboles :   Orages  Brouillard  Fortes neiges  Fortes précipitations  Vent > 20 kt
SIGMETs :   Divers  Orages  Givrage  Turbulence  Onde Orograph.  Cendres Volcan.






- Altitude de l'aérodrome : 256 ft
- Code IATA : CFR


LFRK - Caen

DERNIER METAR :
  • 020730Z AUTO 28003KT 9999 OVC046 05/03 Q1018 NOSIG

METARs EXPIRÉS :
  • 020700Z AUTO 26004KT 9999 OVC042 04/03 Q1018 NOSIG
  • 020630Z AUTO 26004KT 9999 OVC042 03/02 Q1018 NOSIG
  • 020600Z AUTO 25007KT 8000 OVC046 03/02 Q1018 NOSIG
  • 020530Z AUTO 25005KT 8000 OVC047 02/02 Q1018 NOSIG
  • 020500Z AUTO 23005KT 9000 OVC047 02/02 Q1018 NOSIG

Prévision TAF périmée.
Météo : +33 2 31 26 68 11



MET'MAP, la Météo Aéronautique d'un coup d'oeil ! - Copyright ORBIFLY Décembre 2007 - Disclaimer

ORBIFLY MET'MAP TEAM :

Programmation & Développement : Alexandra Zaïnal
Sur une idée originale de : Baudouin d'Aumeries
Assistance à la programmation : Marc-Olivier Méhu
Soutien technique & logistique : Manuel Goepfert

Contact : metmap@orbifly.com




SOURCES & CREDITS :

   NOAA